sensor_id;sensor_type;location;lat;lon;timestamp;P1;durP1;ratioP1;P2;durP2;ratioP2
65463;SDS011;52063;45.110;9.870;2023-02-14T00:02:08;30.15;;;18.95;;
65463;SDS011;52063;45.110;9.870;2023-02-14T00:04:34;27.87;;;18.93;;
65463;SDS011;52063;45.110;9.870;2023-02-14T00:07:02;28.45;;;19.13;;
65463;SDS011;52063;45.110;9.870;2023-02-14T00:09:29;27.25;;;18.48;;
65463;SDS011;52063;45.110;9.870;2023-02-14T00:11:55;26.50;;;18.13;;
65463;SDS011;52063;45.110;9.870;2023-02-14T00:14:20;27.93;;;17.70;;
65463;SDS011;52063;45.110;9.870;2023-02-14T00:17:05;26.27;;;16.80;;
65463;SDS011;52063;45.110;9.870;2023-02-14T00:19:30;25.43;;;16.83;;
65463;SDS011;52063;45.110;9.870;2023-02-14T00:21:56;26.07;;;16.73;;
65463;SDS011;52063;45.110;9.870;2023-02-14T00:24:22;23.98;;;16.90;;
65463;SDS011;52063;45.110;9.870;2023-02-14T00:26:49;23.37;;;16.00;;
65463;SDS011;52063;45.110;9.870;2023-02-14T00:29:16;23.10;;;15.43;;
65463;SDS011;52063;45.110;9.870;2023-02-14T00:31:44;22.35;;;15.50;;
65463;SDS011;52063;45.110;9.870;2023-02-14T00:34:10;21.83;;;15.35;;
65463;SDS011;52063;45.110;9.870;2023-02-14T00:36:35;25.40;;;16.33;;
65463;SDS011;52063;45.110;9.870;2023-02-14T00:39:02;24.35;;;15.30;;
65463;SDS011;52063;45.110;9.870;2023-02-14T00:41:28;22.17;;;15.18;;
65463;SDS011;52063;45.110;9.870;2023-02-14T00:43:53;21.43;;;15.50;;
65463;SDS011;52063;45.110;9.870;2023-02-14T00:46:19;24.83;;;16.27;;
65463;SDS011;52063;45.110;9.870;2023-02-14T00:48:46;21.75;;;15.20;;
65463;SDS011;52063;45.110;9.870;2023-02-14T00:51:11;24.38;;;16.05;;
65463;SDS011;52063;45.110;9.870;2023-02-14T00:53:38;24.45;;;16.35;;
65463;SDS011;52063;45.110;9.870;2023-02-14T00:56:04;20.57;;;15.33;;
65463;SDS011;52063;45.110;9.870;2023-02-14T00:58:30;21.80;;;14.73;;
65463;SDS011;52063;45.110;9.870;2023-02-14T01:00:55;23.63;;;15.33;;
65463;SDS011;52063;45.110;9.870;2023-02-14T01:03:21;20.98;;;15.27;;
65463;SDS011;52063;45.110;9.870;2023-02-14T01:05:47;24.13;;;15.60;;
65463;SDS011;52063;45.110;9.870;2023-02-14T01:08:13;22.77;;;15.10;;
65463;SDS011;52063;45.110;9.870;2023-02-14T01:10:39;22.88;;;16.48;;
65463;SDS011;52063;45.110;9.870;2023-02-14T01:13:04;22.47;;;15.20;;
65463;SDS011;52063;45.110;9.870;2023-02-14T01:15:32;21.98;;;15.05;;
65463;SDS011;52063;45.110;9.870;2023-02-14T01:17:58;23.80;;;14.63;;
65463;SDS011;52063;45.110;9.870;2023-02-14T01:20:24;21.20;;;15.13;;
65463;SDS011;52063;45.110;9.870;2023-02-14T01:22:50;20.85;;;14.95;;
65463;SDS011;52063;45.110;9.870;2023-02-14T01:25:16;23.53;;;15.40;;
65463;SDS011;52063;45.110;9.870;2023-02-14T01:27:41;21.73;;;15.35;;
65463;SDS011;52063;45.110;9.870;2023-02-14T01:30:07;22.97;;;15.73;;
65463;SDS011;52063;45.110;9.870;2023-02-14T01:32:33;23.63;;;16.08;;
65463;SDS011;52063;45.110;9.870;2023-02-14T01:34:59;20.88;;;15.15;;
65463;SDS011;52063;45.110;9.870;2023-02-14T01:37:24;22.70;;;15.57;;
65463;SDS011;52063;45.110;9.870;2023-02-14T01:39:50;22.33;;;14.77;;
65463;SDS011;52063;45.110;9.870;2023-02-14T01:42:15;20.43;;;15.27;;
65463;SDS011;52063;45.110;9.870;2023-02-14T01:47:09;24.10;;;15.57;;
65463;SDS011;52063;45.110;9.870;2023-02-14T01:49:37;20.77;;;15.63;;
65463;SDS011;52063;45.110;9.870;2023-02-14T01:52:10;22.27;;;15.57;;
65463;SDS011;52063;45.110;9.870;2023-02-14T01:54:40;21.48;;;15.73;;
65463;SDS011;52063;45.110;9.870;2023-02-14T01:57:09;20.05;;;14.95;;
65463;SDS011;52063;45.110;9.870;2023-02-14T01:59:39;21.93;;;15.70;;
65463;SDS011;52063;45.110;9.870;2023-02-14T02:02:09;21.15;;;15.23;;
65463;SDS011;52063;45.110;9.870;2023-02-14T02:04:36;23.40;;;16.00;;
65463;SDS011;52063;45.110;9.870;2023-02-14T02:07:05;23.15;;;15.82;;
65463;SDS011;52063;45.110;9.870;2023-02-14T02:09:41;21.80;;;15.60;;
65463;SDS011;52063;45.110;9.870;2023-02-14T02:12:22;19.05;;;14.85;;
65463;SDS011;52063;45.110;9.870;2023-02-14T02:14:48;22.27;;;16.13;;
65463;SDS011;52063;45.110;9.870;2023-02-14T02:23:18;22.17;;;15.60;;
65463;SDS011;52063;45.110;9.870;2023-02-14T02:50:10;22.60;;;16.25;;
65463;SDS011;52063;45.110;9.870;2023-02-14T02:58:43;24.25;;;14.80;;
65463;SDS011;52063;45.110;9.870;2023-02-14T03:01:12;20.08;;;14.48;;
65463;SDS011;52063;45.110;9.870;2023-02-14T03:03:39;21.58;;;15.13;;
65463;SDS011;52063;45.110;9.870;2023-02-14T03:06:25;22.70;;;16.40;;
65463;SDS011;52063;45.110;9.870;2023-02-14T03:08:51;20.30;;;15.20;;
65463;SDS011;52063;45.110;9.870;2023-02-14T03:11:16;19.63;;;15.27;;
65463;SDS011;52063;45.110;9.870;2023-02-14T03:13:48;20.20;;;15.68;;
65463;SDS011;52063;45.110;9.870;2023-02-14T03:22:19;22.90;;;16.95;;
65463;SDS011;52063;45.110;9.870;2023-02-14T03:35:24;22.70;;;16.45;;
65463;SDS011;52063;45.110;9.870;2023-02-14T03:38:04;19.00;;;14.70;;
65463;SDS011;52063;45.110;9.870;2023-02-14T03:40:38;20.88;;;15.02;;
65463;SDS011;52063;45.110;9.870;2023-02-14T03:43:11;21.50;;;15.60;;
65463;SDS011;52063;45.110;9.870;2023-02-14T03:48:13;19.55;;;15.00;;
65463;SDS011;52063;45.110;9.870;2023-02-14T03:50:39;21.05;;;15.80;;
65463;SDS011;52063;45.110;9.870;2023-02-14T03:53:06;22.17;;;15.75;;
65463;SDS011;52063;45.110;9.870;2023-02-14T03:58:30;21.00;;;15.45;;
65463;SDS011;52063;45.110;9.870;2023-02-14T04:01:00;21.90;;;15.65;;
65463;SDS011;52063;45.110;9.870;2023-02-14T04:03:28;22.27;;;16.70;;
65463;SDS011;52063;45.110;9.870;2023-02-14T04:05:54;21.20;;;16.45;;
65463;SDS011;52063;45.110;9.870;2023-02-14T04:08:21;23.20;;;15.77;;
65463;SDS011;52063;45.110;9.870;2023-02-14T04:10:51;21.02;;;16.38;;
65463;SDS011;52063;45.110;9.870;2023-02-14T04:13:17;20.35;;;15.40;;
65463;SDS011;52063;45.110;9.870;2023-02-14T04:15:42;21.60;;;16.60;;
65463;SDS011;52063;45.110;9.870;2023-02-14T04:18:08;19.25;;;14.98;;
65463;SDS011;52063;45.110;9.870;2023-02-14T04:20:53;20.48;;;16.00;;
65463;SDS011;52063;45.110;9.870;2023-02-14T04:23:18;24.53;;;16.87;;
65463;SDS011;52063;45.110;9.870;2023-02-14T04:25:44;23.27;;;18.00;;
65463;SDS011;52063;45.110;9.870;2023-02-14T04:28:10;21.23;;;16.75;;
65463;SDS011;52063;45.110;9.870;2023-02-14T04:30:36;25.65;;;18.10;;
65463;SDS011;52063;45.110;9.870;2023-02-14T04:33:01;23.23;;;17.00;;
65463;SDS011;52063;45.110;9.870;2023-02-14T04:35:27;23.13;;;17.10;;
65463;SDS011;52063;45.110;9.870;2023-02-14T04:37:53;24.13;;;16.97;;
65463;SDS011;52063;45.110;9.870;2023-02-14T04:40:18;22.63;;;17.13;;
65463;SDS011;52063;45.110;9.870;2023-02-14T04:42:44;21.73;;;16.83;;
65463;SDS011;52063;45.110;9.870;2023-02-14T04:45:10;22.85;;;17.70;;
65463;SDS011;52063;45.110;9.870;2023-02-14T04:47:35;24.83;;;18.57;;
65463;SDS011;52063;45.110;9.870;2023-02-14T04:50:01;24.85;;;18.45;;
65463;SDS011;52063;45.110;9.870;2023-02-14T04:52:27;23.13;;;18.23;;
65463;SDS011;52063;45.110;9.870;2023-02-14T04:54:52;25.30;;;18.63;;
65463;SDS011;52063;45.110;9.870;2023-02-14T04:57:18;24.87;;;18.20;;
65463;SDS011;52063;45.110;9.870;2023-02-14T04:59:43;23.55;;;18.17;;
65463;SDS011;52063;45.110;9.870;2023-02-14T05:02:09;28.60;;;19.40;;
65463;SDS011;52063;45.110;9.870;2023-02-14T05:04:34;24.67;;;18.43;;
65463;SDS011;52063;45.110;9.870;2023-02-14T05:07:00;22.60;;;17.15;;
65463;SDS011;52063;45.110;9.870;2023-02-14T05:09:25;23.13;;;18.30;;
65463;SDS011;52063;45.110;9.870;2023-02-14T05:11:51;21.63;;;17.97;;
65463;SDS011;52063;45.110;9.870;2023-02-14T05:14:16;26.45;;;18.67;;
65463;SDS011;52063;45.110;9.870;2023-02-14T05:16:42;26.00;;;18.83;;
65463;SDS011;52063;45.110;9.870;2023-02-14T05:19:07;25.10;;;18.43;;
65463;SDS011;52063;45.110;9.870;2023-02-14T05:21:33;24.63;;;17.98;;
65463;SDS011;52063;45.110;9.870;2023-02-14T05:23:59;25.50;;;18.47;;
65463;SDS011;52063;45.110;9.870;2023-02-14T05:26:24;22.73;;;16.85;;
65463;SDS011;52063;45.110;9.870;2023-02-14T05:28:50;24.17;;;17.40;;
65463;SDS011;52063;45.110;9.870;2023-02-14T05:31:15;23.57;;;17.33;;
65463;SDS011;52063;45.110;9.870;2023-02-14T05:33:41;21.13;;;16.25;;
65463;SDS011;52063;45.110;9.870;2023-02-14T05:36:06;20.43;;;15.63;;
65463;SDS011;52063;45.110;9.870;2023-02-14T05:38:32;18.92;;;15.45;;
65463;SDS011;52063;45.110;9.870;2023-02-14T05:40:59;20.83;;;15.30;;
65463;SDS011;52063;45.110;9.870;2023-02-14T05:43:25;18.50;;;15.00;;
65463;SDS011;52063;45.110;9.870;2023-02-14T05:45:50;18.80;;;14.85;;
65463;SDS011;52063;45.110;9.870;2023-02-14T05:48:16;21.40;;;15.90;;
65463;SDS011;52063;45.110;9.870;2023-02-14T05:50:42;19.40;;;14.32;;
65463;SDS011;52063;45.110;9.870;2023-02-14T05:53:09;18.98;;;14.95;;
65463;SDS011;52063;45.110;9.870;2023-02-14T05:55:35;17.87;;;14.60;;
65463;SDS011;52063;45.110;9.870;2023-02-14T05:58:00;20.57;;;15.83;;
65463;SDS011;52063;45.110;9.870;2023-02-14T06:00:26;19.67;;;15.23;;
65463;SDS011;52063;45.110;9.870;2023-02-14T06:02:52;19.05;;;14.95;;
65463;SDS011;52063;45.110;9.870;2023-02-14T06:05:17;19.40;;;14.40;;
65463;SDS011;52063;45.110;9.870;2023-02-14T06:07:44;20.05;;;15.18;;
65463;SDS011;52063;45.110;9.870;2023-02-14T06:10:18;19.63;;;14.85;;
65463;SDS011;52063;45.110;9.870;2023-02-14T06:12:47;19.92;;;14.80;;
65463;SDS011;52063;45.110;9.870;2023-02-14T06:15:13;20.10;;;15.57;;
65463;SDS011;52063;45.110;9.870;2023-02-14T06:17:38;16.73;;;13.43;;
65463;SDS011;52063;45.110;9.870;2023-02-14T06:20:04;19.20;;;14.30;;
65463;SDS011;52063;45.110;9.870;2023-02-14T06:22:30;19.00;;;15.43;;
65463;SDS011;52063;45.110;9.870;2023-02-14T06:24:56;19.17;;;15.27;;
65463;SDS011;52063;45.110;9.870;2023-02-14T06:27:21;20.05;;;14.57;;
65463;SDS011;52063;45.110;9.870;2023-02-14T06:29:47;19.73;;;13.77;;
65463;SDS011;52063;45.110;9.870;2023-02-14T06:32:13;20.25;;;13.82;;
65463;SDS011;52063;45.110;9.870;2023-02-14T06:34:39;19.17;;;14.13;;
65463;SDS011;52063;45.110;9.870;2023-02-14T06:37:05;17.05;;;13.85;;
65463;SDS011;52063;45.110;9.870;2023-02-14T06:39:31;17.08;;;12.95;;
65463;SDS011;52063;45.110;9.870;2023-02-14T06:41:56;17.30;;;13.33;;
65463;SDS011;52063;45.110;9.870;2023-02-14T06:44:22;18.13;;;13.60;;
65463;SDS011;52063;45.110;9.870;2023-02-14T06:46:47;17.53;;;13.63;;
65463;SDS011;52063;45.110;9.870;2023-02-14T06:49:13;17.85;;;13.85;;
65463;SDS011;52063;45.110;9.870;2023-02-14T06:51:38;16.57;;;13.40;;
65463;SDS011;52063;45.110;9.870;2023-02-14T06:54:04;18.33;;;13.73;;
65463;SDS011;52063;45.110;9.870;2023-02-14T06:56:29;16.88;;;12.48;;
65463;SDS011;52063;45.110;9.870;2023-02-14T06:58:55;14.67;;;12.03;;
65463;SDS011;52063;45.110;9.870;2023-02-14T07:01:20;13.33;;;10.77;;
65463;SDS011;52063;45.110;9.870;2023-02-14T07:03:45;15.13;;;11.40;;
65463;SDS011;52063;45.110;9.870;2023-02-14T07:06:11;15.10;;;12.00;;
65463;SDS011;52063;45.110;9.870;2023-02-14T07:08:36;13.63;;;11.20;;
65463;SDS011;52063;45.110;9.870;2023-02-14T07:11:02;13.30;;;10.93;;
65463;SDS011;52063;45.110;9.870;2023-02-14T07:13:27;14.43;;;11.20;;
65463;SDS011;52063;45.110;9.870;2023-02-14T07:15:52;12.40;;;10.00;;
65463;SDS011;52063;45.110;9.870;2023-02-14T07:18:18;12.70;;;10.33;;
65463;SDS011;52063;45.110;9.870;2023-02-14T07:20:43;16.13;;;11.15;;
65463;SDS011;52063;45.110;9.870;2023-02-14T07:23:09;13.30;;;10.17;;
65463;SDS011;52063;45.110;9.870;2023-02-14T07:25:35;11.63;;;10.30;;
65463;SDS011;52063;45.110;9.870;2023-02-14T07:28:01;13.50;;;10.75;;
65463;SDS011;52063;45.110;9.870;2023-02-14T07:30:29;13.17;;;10.67;;
65463;SDS011;52063;45.110;9.870;2023-02-14T07:32:55;11.77;;;9.85;;
65463;SDS011;52063;45.110;9.870;2023-02-14T07:35:21;13.57;;;10.45;;
65463;SDS011;52063;45.110;9.870;2023-02-14T07:37:47;13.30;;;10.97;;
65463;SDS011;52063;45.110;9.870;2023-02-14T07:40:14;12.95;;;10.50;;
65463;SDS011;52063;45.110;9.870;2023-02-14T07:42:39;14.17;;;11.73;;
65463;SDS011;52063;45.110;9.870;2023-02-14T07:45:05;14.93;;;12.10;;
65463;SDS011;52063;45.110;9.870;2023-02-14T07:47:31;15.48;;;11.15;;
65463;SDS011;52063;45.110;9.870;2023-02-14T07:49:57;13.60;;;11.10;;
65463;SDS011;52063;45.110;9.870;2023-02-14T07:52:22;14.73;;;12.17;;
65463;SDS011;52063;45.110;9.870;2023-02-14T07:54:48;15.68;;;10.98;;
65463;SDS011;52063;45.110;9.870;2023-02-14T07:57:13;16.87;;;11.60;;
65463;SDS011;52063;45.110;9.870;2023-02-14T07:59:38;13.03;;;10.97;;
65463;SDS011;52063;45.110;9.870;2023-02-14T08:02:04;14.70;;;11.77;;
65463;SDS011;52063;45.110;9.870;2023-02-14T08:04:29;16.23;;;11.90;;
65463;SDS011;52063;45.110;9.870;2023-02-14T08:06:55;12.23;;;10.37;;
65463;SDS011;52063;45.110;9.870;2023-02-14T08:09:20;14.17;;;11.67;;
65463;SDS011;52063;45.110;9.870;2023-02-14T08:11:52;15.83;;;12.40;;
65463;SDS011;52063;45.110;9.870;2023-02-14T08:14:38;15.40;;;12.30;;
65463;SDS011;52063;45.110;9.870;2023-02-14T08:17:04;15.70;;;11.82;;
65463;SDS011;52063;45.110;9.870;2023-02-14T08:19:31;15.63;;;12.30;;
65463;SDS011;52063;45.110;9.870;2023-02-14T08:21:57;15.53;;;12.83;;
65463;SDS011;52063;45.110;9.870;2023-02-14T08:24:22;16.33;;;12.53;;
65463;SDS011;52063;45.110;9.870;2023-02-14T08:26:48;14.77;;;12.40;;
65463;SDS011;52063;45.110;9.870;2023-02-14T08:29:13;16.13;;;12.10;;
65463;SDS011;52063;45.110;9.870;2023-02-14T08:31:39;16.97;;;13.07;;
65463;SDS011;52063;45.110;9.870;2023-02-14T08:34:04;13.95;;;11.50;;
65463;SDS011;52063;45.110;9.870;2023-02-14T08:36:30;17.10;;;12.75;;
65463;SDS011;52063;45.110;9.870;2023-02-14T08:38:56;16.33;;;13.30;;
65463;SDS011;52063;45.110;9.870;2023-02-14T08:41:22;19.17;;;13.93;;
65463;SDS011;52063;45.110;9.870;2023-02-14T08:43:48;18.43;;;14.17;;
65463;SDS011;52063;45.110;9.870;2023-02-14T08:46:13;16.98;;;13.02;;
65463;SDS011;52063;45.110;9.870;2023-02-14T08:48:41;19.00;;;14.20;;
65463;SDS011;52063;45.110;9.870;2023-02-14T08:51:08;19.45;;;13.60;;
65463;SDS011;52063;45.110;9.870;2023-02-14T08:53:34;47.37;;;32.23;;
65463;SDS011;52063;45.110;9.870;2023-02-14T08:56:03;62.72;;;43.05;;
65463;SDS011;52063;45.110;9.870;2023-02-14T08:58:30;67.65;;;45.97;;
65463;SDS011;52063;45.110;9.870;2023-02-14T09:00:56;72.43;;;48.80;;
65463;SDS011;52063;45.110;9.870;2023-02-14T09:03:22;64.68;;;42.92;;
65463;SDS011;52063;45.110;9.870;2023-02-14T09:05:47;63.07;;;41.70;;
65463;SDS011;52063;45.110;9.870;2023-02-14T09:08:12;60.43;;;43.27;;
65463;SDS011;52063;45.110;9.870;2023-02-14T09:10:38;66.03;;;44.37;;
65463;SDS011;52063;45.110;9.870;2023-02-14T09:13:03;66.30;;;45.55;;
65463;SDS011;52063;45.110;9.870;2023-02-14T09:15:29;61.27;;;41.13;;
65463;SDS011;52063;45.110;9.870;2023-02-14T09:17:54;57.50;;;37.87;;
65463;SDS011;52063;45.110;9.870;2023-02-14T09:20:20;55.45;;;40.25;;
65463;SDS011;52063;45.110;9.870;2023-02-14T09:22:45;60.07;;;41.23;;
65463;SDS011;52063;45.110;9.870;2023-02-14T09:25:11;61.70;;;42.07;;
65463;SDS011;52063;45.110;9.870;2023-02-14T09:27:37;58.42;;;42.15;;
65463;SDS011;52063;45.110;9.870;2023-02-14T09:30:03;58.90;;;40.83;;
65463;SDS011;52063;45.110;9.870;2023-02-14T09:32:30;61.47;;;42.25;;
65463;SDS011;52063;45.110;9.870;2023-02-14T09:34:55;66.27;;;45.40;;
65463;SDS011;52063;45.110;9.870;2023-02-14T09:37:21;61.33;;;43.40;;
65463;SDS011;52063;45.110;9.870;2023-02-14T09:40:05;64.55;;;44.17;;
65463;SDS011;52063;45.110;9.870;2023-02-14T09:45:16;67.03;;;45.13;;
65463;SDS011;52063;45.110;9.870;2023-02-14T09:47:48;62.38;;;43.97;;
65463;SDS011;52063;45.110;9.870;2023-02-14T09:50:28;62.58;;;44.15;;
65463;SDS011;52063;45.110;9.870;2023-02-14T09:53:04;68.88;;;45.85;;
65463;SDS011;52063;45.110;9.870;2023-02-14T09:55:38;65.28;;;46.20;;
65463;SDS011;52063;45.110;9.870;2023-02-14T10:00:40;69.38;;;49.00;;
65463;SDS011;52063;45.110;9.870;2023-02-14T10:05:44;75.05;;;50.92;;
65463;SDS011;52063;45.110;9.870;2023-02-14T10:11:22;82.10;;;56.60;;
65463;SDS011;52063;45.110;9.870;2023-02-14T10:13:52;88.95;;;59.10;;
65463;SDS011;52063;45.110;9.870;2023-02-14T10:19:01;119.50;;;78.47;;
65463;SDS011;52063;45.110;9.870;2023-02-14T10:21:30;105.03;;;66.53;;
65463;SDS011;52063;45.110;9.870;2023-02-14T10:24:04;118.77;;;79.80;;
65463;SDS011;52063;45.110;9.870;2023-02-14T10:26:38;114.65;;;73.47;;
65463;SDS011;52063;45.110;9.870;2023-02-14T10:29:06;132.30;;;84.40;;
65463;SDS011;52063;45.110;9.870;2023-02-14T10:34:28;122.00;;;75.07;;
65463;SDS011;52063;45.110;9.870;2023-02-14T10:47:57;131.73;;;83.05;;
65463;SDS011;52063;45.110;9.870;2023-02-14T10:56:16;121.93;;;79.43;;
65463;SDS011;52063;45.110;9.870;2023-02-14T10:58:44;116.00;;;70.35;;
65463;SDS011;52063;45.110;9.870;2023-02-14T11:01:12;115.13;;;72.40;;
65463;SDS011;52063;45.110;9.870;2023-02-14T11:03:39;111.38;;;67.07;;
65463;SDS011;52063;45.110;9.870;2023-02-14T11:06:09;103.78;;;66.25;;
65463;SDS011;52063;45.110;9.870;2023-02-14T11:08:36;116.63;;;73.80;;
65463;SDS011;52063;45.110;9.870;2023-02-14T11:11:06;103.38;;;65.97;;
65463;SDS011;52063;45.110;9.870;2023-02-14T11:13:50;118.80;;;75.63;;
65463;SDS011;52063;45.110;9.870;2023-02-14T11:16:28;119.70;;;72.73;;
65463;SDS011;52063;45.110;9.870;2023-02-14T11:21:37;111.88;;;72.25;;
65463;SDS011;52063;45.110;9.870;2023-02-14T11:24:15;111.88;;;68.93;;
65463;SDS011;52063;45.110;9.870;2023-02-14T11:27:01;103.55;;;64.47;;
65463;SDS011;52063;45.110;9.870;2023-02-14T11:32:14;108.22;;;67.10;;
65463;SDS011;52063;45.110;9.870;2023-02-14T11:39:47;99.37;;;60.43;;
65463;SDS011;52063;45.110;9.870;2023-02-14T11:42:13;93.65;;;57.95;;
65463;SDS011;52063;45.110;9.870;2023-02-14T11:44:47;91.38;;;57.35;;
65463;SDS011;52063;45.110;9.870;2023-02-14T11:47:29;89.60;;;54.03;;
65463;SDS011;52063;45.110;9.870;2023-02-14T11:49:59;84.82;;;51.65;;
65463;SDS011;52063;45.110;9.870;2023-02-14T11:52:27;80.72;;;51.40;;
65463;SDS011;52063;45.110;9.870;2023-02-14T11:54:54;81.25;;;49.75;;
65463;SDS011;52063;45.110;9.870;2023-02-14T11:57:22;87.28;;;53.17;;
65463;SDS011;52063;45.110;9.870;2023-02-14T11:59:52;75.87;;;45.80;;
65463;SDS011;52063;45.110;9.870;2023-02-14T12:04:53;74.50;;;45.67;;
65463;SDS011;52063;45.110;9.870;2023-02-14T12:10:05;72.00;;;44.28;;
65463;SDS011;52063;45.110;9.870;2023-02-14T12:12:52;68.77;;;41.17;;
65463;SDS011;52063;45.110;9.870;2023-02-14T12:15:33;74.45;;;44.13;;
65463;SDS011;52063;45.110;9.870;2023-02-14T12:21:02;66.63;;;41.78;;
65463;SDS011;52063;45.110;9.870;2023-02-14T12:34:48;65.18;;;38.75;;
65463;SDS011;52063;45.110;9.870;2023-02-14T12:37:24;63.60;;;37.15;;
65463;SDS011;52063;45.110;9.870;2023-02-14T12:45:58;62.05;;;35.97;;
65463;SDS011;52063;45.110;9.870;2023-02-14T12:51:04;68.90;;;38.30;;
65463;SDS011;52063;45.110;9.870;2023-02-14T12:59:01;68.28;;;38.72;;
65463;SDS011;52063;45.110;9.870;2023-02-14T13:01:56;67.25;;;37.55;;
65463;SDS011;52063;45.110;9.870;2023-02-14T13:07:40;62.90;;;36.13;;
65463;SDS011;52063;45.110;9.870;2023-02-14T13:11:14;61.03;;;34.42;;
65463;SDS011;52063;45.110;9.870;2023-02-14T13:13:47;66.68;;;35.55;;
65463;SDS011;52063;45.110;9.870;2023-02-14T13:21:41;68.33;;;40.50;;
65463;SDS011;52063;45.110;9.870;2023-02-14T13:24:18;70.07;;;39.83;;
65463;SDS011;52063;45.110;9.870;2023-02-14T13:26:47;66.25;;;39.67;;
65463;SDS011;52063;45.110;9.870;2023-02-14T13:29:19;68.50;;;38.08;;
65463;SDS011;52063;45.110;9.870;2023-02-14T13:31:47;67.90;;;37.87;;
65463;SDS011;52063;45.110;9.870;2023-02-14T13:36:59;71.28;;;40.67;;
65463;SDS011;52063;45.110;9.870;2023-02-14T13:39:33;68.97;;;38.88;;
65463;SDS011;52063;45.110;9.870;2023-02-14T13:42:01;70.30;;;39.78;;
65463;SDS011;52063;45.110;9.870;2023-02-14T13:44:43;72.17;;;38.97;;
65463;SDS011;52063;45.110;9.870;2023-02-14T13:47:23;66.82;;;39.10;;
65463;SDS011;52063;45.110;9.870;2023-02-14T13:49:55;64.90;;;37.85;;
65463;SDS011;52063;45.110;9.870;2023-02-14T13:52:37;68.30;;;38.85;;
65463;SDS011;52063;45.110;9.870;2023-02-14T13:55:15;73.13;;;40.50;;
65463;SDS011;52063;45.110;9.870;2023-02-14T13:57:43;70.70;;;38.40;;
65463;SDS011;52063;45.110;9.870;2023-02-14T14:02:42;67.97;;;37.93;;
65463;SDS011;52063;45.110;9.870;2023-02-14T14:18:48;63.90;;;35.47;;
65463;SDS011;52063;45.110;9.870;2023-02-14T14:21:40;59.50;;;34.20;;
65463;SDS011;52063;45.110;9.870;2023-02-14T14:24:26;67.00;;;37.80;;
65463;SDS011;52063;45.110;9.870;2023-02-14T14:29:38;65.23;;;35.80;;
65463;SDS011;52063;45.110;9.870;2023-02-14T14:32:08;65.82;;;36.55;;
65463;SDS011;52063;45.110;9.870;2023-02-14T14:34:35;63.37;;;35.70;;
65463;SDS011;52063;45.110;9.870;2023-02-14T14:37:04;66.18;;;34.95;;
65463;SDS011;52063;45.110;9.870;2023-02-14T14:39:40;62.53;;;35.60;;
65463;SDS011;52063;45.110;9.870;2023-02-14T14:42:12;67.57;;;38.03;;
65463;SDS011;52063;45.110;9.870;2023-02-14T14:44:44;66.13;;;35.88;;
65463;SDS011;52063;45.110;9.870;2023-02-14T14:47:14;65.55;;;36.70;;
65463;SDS011;52063;45.110;9.870;2023-02-14T14:49:44;60.63;;;36.00;;
65463;SDS011;52063;45.110;9.870;2023-02-14T14:52:16;66.43;;;36.33;;
65463;SDS011;52063;45.110;9.870;2023-02-14T14:54:50;64.40;;;35.80;;
65463;SDS011;52063;45.110;9.870;2023-02-14T14:57:16;64.90;;;37.00;;
65463;SDS011;52063;45.110;9.870;2023-02-14T14:59:42;63.60;;;36.08;;
65463;SDS011;52063;45.110;9.870;2023-02-14T15:05:11;61.95;;;34.38;;
65463;SDS011;52063;45.110;9.870;2023-02-14T15:07:40;61.30;;;34.17;;
65463;SDS011;52063;45.110;9.870;2023-02-14T15:10:19;57.90;;;33.30;;
65463;SDS011;52063;45.110;9.870;2023-02-14T15:12:46;59.97;;;35.38;;
65463;SDS011;52063;45.110;9.870;2023-02-14T15:15:30;61.00;;;33.95;;
65463;SDS011;52063;45.110;9.870;2023-02-14T15:17:55;57.50;;;32.87;;
65463;SDS011;52063;45.110;9.870;2023-02-14T15:20:21;57.67;;;32.05;;
65463;SDS011;52063;45.110;9.870;2023-02-14T15:22:47;58.70;;;32.30;;
65463;SDS011;52063;45.110;9.870;2023-02-14T15:27:56;56.78;;;32.40;;
65463;SDS011;52063;45.110;9.870;2023-02-14T15:30:26;56.93;;;31.03;;
65463;SDS011;52063;45.110;9.870;2023-02-14T15:32:59;53.17;;;31.52;;
65463;SDS011;52063;45.110;9.870;2023-02-14T15:35:28;51.72;;;30.42;;
65463;SDS011;52063;45.110;9.870;2023-02-14T15:37:56;56.08;;;31.02;;
65463;SDS011;52063;45.110;9.870;2023-02-14T15:40:23;56.25;;;32.22;;
65463;SDS011;52063;45.110;9.870;2023-02-14T15:42:50;56.93;;;30.87;;
65463;SDS011;52063;45.110;9.870;2023-02-14T15:48:11;55.38;;;30.25;;
65463;SDS011;52063;45.110;9.870;2023-02-14T15:50:47;52.42;;;30.48;;
65463;SDS011;52063;45.110;9.870;2023-02-14T15:55:43;49.43;;;29.57;;
65463;SDS011;52063;45.110;9.870;2023-02-14T15:58:16;48.28;;;29.08;;
65463;SDS011;52063;45.110;9.870;2023-02-14T16:00:44;49.45;;;27.90;;
65463;SDS011;52063;45.110;9.870;2023-02-14T16:03:11;47.80;;;28.60;;
65463;SDS011;52063;45.110;9.870;2023-02-14T16:05:46;49.70;;;29.20;;
65463;SDS011;52063;45.110;9.870;2023-02-14T16:08:23;49.45;;;28.75;;
65463;SDS011;52063;45.110;9.870;2023-02-14T16:13:36;45.78;;;27.10;;
65463;SDS011;52063;45.110;9.870;2023-02-14T16:16:03;45.63;;;27.17;;
65463;SDS011;52063;45.110;9.870;2023-02-14T16:18:35;46.95;;;27.27;;
65463;SDS011;52063;45.110;9.870;2023-02-14T16:26:41;45.90;;;27.02;;
65463;SDS011;52063;45.110;9.870;2023-02-14T16:29:09;45.33;;;26.27;;
65463;SDS011;52063;45.110;9.870;2023-02-14T16:31:40;45.38;;;27.77;;
65463;SDS011;52063;45.110;9.870;2023-02-14T16:34:11;44.33;;;26.15;;
65463;SDS011;52063;45.110;9.870;2023-02-14T16:36:37;41.03;;;26.00;;
65463;SDS011;52063;45.110;9.870;2023-02-14T16:39:03;44.53;;;25.43;;
65463;SDS011;52063;45.110;9.870;2023-02-14T16:41:29;42.85;;;26.08;;
65463;SDS011;52063;45.110;9.870;2023-02-14T16:43:57;43.58;;;25.48;;
65463;SDS011;52063;45.110;9.870;2023-02-14T16:46:24;43.33;;;25.55;;
65463;SDS011;52063;45.110;9.870;2023-02-14T16:48:51;40.53;;;25.03;;
65463;SDS011;52063;45.110;9.870;2023-02-14T16:51:18;40.20;;;24.95;;
65463;SDS011;52063;45.110;9.870;2023-02-14T16:53:45;41.03;;;25.03;;
65463;SDS011;52063;45.110;9.870;2023-02-14T16:56:21;40.15;;;24.30;;
65463;SDS011;52063;45.110;9.870;2023-02-14T16:58:48;39.83;;;23.95;;
65463;SDS011;52063;45.110;9.870;2023-02-14T17:01:14;36.80;;;23.40;;
65463;SDS011;52063;45.110;9.870;2023-02-14T17:03:39;39.60;;;23.97;;
65463;SDS011;52063;45.110;9.870;2023-02-14T17:06:06;39.63;;;23.58;;
65463;SDS011;52063;45.110;9.870;2023-02-14T17:08:34;38.50;;;24.83;;
65463;SDS011;52063;45.110;9.870;2023-02-14T17:11:01;38.60;;;23.20;;
65463;SDS011;52063;45.110;9.870;2023-02-14T17:13:28;37.42;;;21.88;;
65463;SDS011;52063;45.110;9.870;2023-02-14T17:15:56;37.95;;;23.42;;
65463;SDS011;52063;45.110;9.870;2023-02-14T17:18:22;36.90;;;23.97;;
65463;SDS011;52063;45.110;9.870;2023-02-14T17:20:48;40.90;;;23.75;;
65463;SDS011;52063;45.110;9.870;2023-02-14T17:23:13;37.10;;;22.40;;
65463;SDS011;52063;45.110;9.870;2023-02-14T17:25:39;34.90;;;22.52;;
65463;SDS011;52063;45.110;9.870;2023-02-14T17:28:05;37.13;;;23.77;;
65463;SDS011;52063;45.110;9.870;2023-02-14T17:30:30;36.72;;;23.27;;
65463;SDS011;52063;45.110;9.870;2023-02-14T17:32:56;38.80;;;22.57;;
65463;SDS011;52063;45.110;9.870;2023-02-14T17:35:21;35.37;;;20.17;;
65463;SDS011;52063;45.110;9.870;2023-02-14T17:37:46;37.47;;;21.90;;